Terminal Aerodrome Forecast
Issued by NWS

Home | Current Version | Previous Version | Text Only | Print | Product List | Glossary On
Versions: 1 2 3 4 5 6 7 8 9 10 11
000
FTAK31 PAJN 270500
TAFAJN
TAF
PAJN 270520Z 2706/2806 10005KT P6SM -RA FEW008 BKN025 OVC040
     FM270800 VRB05KT P6SM VCSH SCT025 BKN040
     FM271100 00000KT 6SM BCFG FEW003 SCT050
     FM271500 VRB04KT P6SM FEW050
     FM271800 30005KT P6SM SKC=

USA.gov is the U.S. government's official web portal to all federal, state and local government web resources and services.